createdAt,value
2019-01-11T00:01:21.003Z,1.30
2019-01-11T00:03:50.162Z,1.30
2019-01-11T00:06:19.444Z,1.30
2019-01-11T00:08:48.686Z,1.30
2019-01-11T00:11:17.954Z,1.30
2019-01-11T00:13:47.191Z,1.30
2019-01-11T00:16:16.441Z,1.30
2019-01-11T00:18:45.970Z,1.30
2019-01-11T00:21:15.237Z,1.20
2019-01-11T00:23:44.418Z,1.30
2019-01-11T00:26:13.598Z,1.30
2019-01-11T00:28:44.200Z,1.30
2019-01-11T00:31:13.482Z,1.20
2019-01-11T00:33:42.701Z,1.20
2019-01-11T00:36:11.969Z,1.20
2019-01-11T00:38:41.215Z,1.20
2019-01-11T00:41:10.538Z,1.20
2019-01-11T00:43:39.832Z,1.20
2019-01-11T00:46:09.011Z,1.20
2019-01-11T00:48:38.208Z,1.20
2019-01-11T00:51:07.455Z,1.20
2019-01-11T00:53:36.606Z,1.20
2019-01-11T00:56:06.206Z,1.20
2019-01-11T00:58:35.461Z,1.10
2019-01-11T01:01:04.689Z,1.20
2019-01-11T01:03:33.956Z,1.20
2019-01-11T01:06:03.186Z,1.10
2019-01-11T01:08:32.480Z,1.10
2019-01-11T01:11:01.737Z,1.10
2019-01-11T01:13:30.921Z,1.10
2019-01-11T01:16:00.162Z,1.10
2019-01-11T01:18:29.406Z,1.10
2019-01-11T01:20:58.642Z,1.10
2019-01-11T01:23:27.927Z,1.10
2019-01-11T01:25:57.092Z,1.10
2019-01-11T01:28:26.360Z,1.10
2019-01-11T01:30:55.512Z,1.10
2019-01-11T01:33:24.703Z,1.10
2019-01-11T01:35:53.858Z,1.20
2019-01-11T01:38:23.127Z,1.20
2019-01-11T01:40:52.394Z,1.20
2019-01-11T01:43:21.574Z,1.20
2019-01-11T01:45:50.804Z,1.20
2019-01-11T01:48:20.026Z,1.20
2019-01-11T01:50:49.280Z,1.20
2019-01-11T01:53:18.552Z,1.10
2019-01-11T01:55:47.712Z,1.10
2019-01-11T01:58:16.971Z,1.20
2019-01-11T02:00:46.203Z,1.20
2019-01-11T02:03:15.395Z,1.30
2019-01-11T02:05:44.625Z,1.20
2019-01-11T02:08:13.802Z,1.20
2019-01-11T02:10:42.966Z,1.30
2019-01-11T02:13:12.246Z,1.30
2019-01-11T02:15:41.410Z,1.30
2019-01-11T02:18:10.586Z,1.20
2019-01-11T02:20:39.823Z,1.20
2019-01-11T02:23:09.176Z,1.30
2019-01-11T02:25:38.419Z,1.30
2019-01-11T02:28:07.676Z,1.30
2019-01-11T02:30:36.919Z,1.30
2019-01-11T02:33:06.102Z,1.30
2019-01-11T02:35:35.336Z,1.30
2019-01-11T02:38:04.620Z,1.40
2019-01-11T02:40:33.899Z,1.30
2019-01-11T02:43:03.090Z,1.30
2019-01-11T02:45:32.392Z,1.30
2019-01-11T02:48:01.664Z,1.30
2019-01-11T02:50:31.148Z,1.30
2019-01-11T02:53:00.403Z,1.40
2019-01-11T02:55:29.744Z,1.30
2019-01-11T02:57:59.055Z,1.40
2019-01-11T03:00:28.386Z,1.30
2019-01-11T03:02:57.715Z,1.30
2019-01-11T03:05:26.958Z,1.30
2019-01-11T03:07:56.198Z,1.40
2019-01-11T03:10:25.393Z,1.30
2019-01-11T03:12:54.550Z,1.40
2019-01-11T03:15:23.810Z,1.30
2019-01-11T03:17:53.031Z,1.30
2019-01-11T03:20:22.214Z,1.30
2019-01-11T03:22:51.379Z,1.30
2019-01-11T03:25:20.656Z,1.40
2019-01-11T03:27:49.899Z,1.40
2019-01-11T03:30:20.713Z,1.30
2019-01-11T03:32:50.008Z,1.30
2019-01-11T03:35:20.584Z,1.30
2019-01-11T03:37:51.216Z,1.40
2019-01-11T03:40:27.301Z,1.30
2019-01-11T03:42:56.599Z,1.40
2019-01-11T03:45:26.139Z,1.40
2019-01-11T03:47:55.365Z,1.40
2019-01-11T03:50:25.102Z,1.40
2019-01-11T03:52:54.443Z,1.40
2019-01-11T03:55:23.634Z,1.40
2019-01-11T03:57:52.863Z,1.40
2019-01-11T04:00:23.727Z,1.50
2019-01-11T04:02:52.978Z,1.50
2019-01-11T04:05:22.441Z,1.40
2019-01-11T04:07:52.029Z,1.40
2019-01-11T04:10:24.944Z,1.40
2019-01-11T04:12:54.211Z,1.40
2019-01-11T04:15:24.255Z,1.40
2019-01-11T04:18:12.807Z,1.50
2019-01-11T04:20:41.993Z,1.50
2019-01-11T04:23:11.218Z,1.50
2019-01-11T04:25:45.182Z,1.40
2019-01-11T04:28:14.540Z,1.40
2019-01-11T04:30:43.867Z,1.40
2019-01-11T04:33:13.023Z,1.40
2019-01-11T04:35:42.275Z,1.40
2019-01-11T04:38:11.438Z,1.40
2019-01-11T04:40:40.683Z,1.40
2019-01-11T04:43:09.829Z,1.40
2019-01-11T04:45:39.079Z,1.40
2019-01-11T04:48:08.343Z,1.40
2019-01-11T04:50:37.575Z,1.40
2019-01-11T04:53:06.727Z,1.40
2019-01-11T04:55:35.992Z,1.40
2019-01-11T04:58:06.679Z,1.40
2019-01-11T05:00:36.163Z,1.40
2019-01-11T05:03:05.609Z,1.40
2019-01-11T05:05:34.953Z,1.40
2019-01-11T05:08:04.112Z,1.40
2019-01-11T05:10:33.402Z,1.40
2019-01-11T05:13:25.842Z,1.40
2019-01-11T05:15:55.100Z,1.40
2019-01-11T05:18:24.254Z,1.40
2019-01-11T05:20:53.435Z,1.40
2019-01-11T05:23:22.591Z,1.40
2019-01-11T05:25:51.879Z,1.40
2019-01-11T05:28:21.036Z,1.40
2019-01-11T05:30:50.302Z,1.40
2019-01-11T05:33:19.605Z,1.40
2019-01-11T05:35:48.754Z,1.40
2019-01-11T05:38:18.010Z,1.40
2019-01-11T05:40:47.251Z,1.40
2019-01-11T05:43:16.506Z,1.40
2019-01-11T05:45:45.667Z,1.40
2019-01-11T05:48:14.931Z,1.40
2019-01-11T05:50:44.087Z,1.40
2019-01-11T05:53:13.262Z,1.40
2019-01-11T05:55:46.474Z,1.40
2019-01-11T05:58:43.872Z,1.40
2019-01-11T06:01:14.930Z,1.40
2019-01-11T06:03:44.183Z,1.40
2019-01-11T06:06:13.419Z,1.40
2019-01-11T06:08:42.744Z,1.40
2019-01-11T06:11:11.979Z,1.40
2019-01-11T06:13:41.242Z,1.40
2019-01-11T06:16:11.966Z,1.40
2019-01-11T06:18:41.222Z,1.40
2019-01-11T06:21:10.463Z,1.40
2019-01-11T06:23:39.741Z,1.50
2019-01-11T06:26:08.919Z,1.50
2019-01-11T06:28:38.113Z,1.50
2019-01-11T06:31:07.348Z,1.50
2019-01-11T06:33:36.532Z,1.50
2019-01-11T06:36:05.769Z,1.50
2019-01-11T06:38:35.035Z,1.50
2019-01-11T06:41:04.319Z,1.50
2019-01-11T06:43:33.576Z,1.50
2019-01-11T06:46:02.734Z,1.60
2019-01-11T06:48:42.435Z,1.60
2019-01-11T06:51:11.804Z,1.60
2019-01-11T06:53:41.088Z,1.60
2019-01-11T06:56:10.319Z,1.60
2019-01-11T06:58:39.503Z,1.60
2019-01-11T07:01:08.725Z,1.60
2019-01-11T07:03:37.998Z,1.60
2019-01-11T07:06:07.372Z,1.60
2019-01-11T07:08:36.616Z,1.60
2019-01-11T07:11:06.123Z,1.60
2019-01-11T07:13:35.451Z,1.70
2019-01-11T07:16:04.709Z,1.70
2019-01-11T07:18:33.971Z,1.60
2019-01-11T07:21:03.220Z,1.70
2019-01-11T07:23:32.598Z,1.70
2019-01-11T07:26:01.927Z,1.70
2019-01-11T07:28:31.228Z,1.70
2019-01-11T07:31:06.930Z,1.70
2019-01-11T07:33:36.162Z,1.80
2019-01-11T07:36:25.122Z,1.80
2019-01-11T07:38:54.375Z,1.80
2019-01-11T07:41:23.550Z,1.80
2019-01-11T07:43:52.783Z,1.80
2019-01-11T07:46:22.171Z,1.80
2019-01-11T07:48:51.599Z,1.90
2019-01-11T07:51:20.857Z,1.90
2019-01-11T07:53:50.094Z,1.90
2019-01-11T07:56:19.387Z,1.90
2019-01-11T07:58:48.537Z,1.90
2019-01-11T08:01:17.800Z,1.90
2019-01-11T08:03:46.959Z,2.00
2019-01-11T08:06:16.212Z,2.00
2019-01-11T08:08:45.452Z,2.00
2019-01-11T08:11:14.640Z,2.00
2019-01-11T08:13:43.994Z,2.00
2019-01-11T08:16:13.242Z,2.00
2019-01-11T08:18:44.519Z,2.00
2019-01-11T08:21:13.691Z,2.10
2019-01-11T08:23:42.920Z,2.00
2019-01-11T08:26:12.131Z,2.10
2019-01-11T08:28:41.369Z,2.10
2019-01-11T08:31:10.628Z,2.20
2019-01-11T08:33:39.862Z,2.10
2019-01-11T08:36:09.115Z,2.20
2019-01-11T08:38:38.369Z,2.20
2019-01-11T08:41:07.688Z,2.30
2019-01-11T08:43:37.099Z,2.20
2019-01-11T08:46:06.364Z,2.30
2019-01-11T08:48:35.622Z,2.30
2019-01-11T08:51:05.221Z,2.30
2019-01-11T08:53:35.220Z,2.30
2019-01-11T08:56:08.387Z,2.30
2019-01-11T08:58:35.843Z,2.40
2019-01-11T09:01:05.116Z,2.40
2019-01-11T09:03:34.350Z,2.40
2019-01-11T09:06:03.611Z,2.40
2019-01-11T09:08:32.759Z,2.50
2019-01-11T09:11:02.068Z,2.50
2019-01-11T09:13:31.339Z,2.40
2019-01-11T09:16:00.632Z,2.50
2019-01-11T09:18:36.884Z,2.50
2019-01-11T09:21:09.635Z,2.50
2019-01-11T09:23:37.101Z,2.50
2019-01-11T09:26:06.305Z,2.60
2019-01-11T09:28:35.522Z,2.60
2019-01-11T09:31:04.761Z,2.60
2019-01-11T09:33:33.934Z,2.60
2019-01-11T09:36:03.180Z,2.70
2019-01-11T09:38:32.358Z,2.70
2019-01-11T09:41:01.591Z,2.70
2019-01-11T09:43:32.264Z,2.70
2019-01-11T09:46:01.494Z,2.70
2019-01-11T09:48:30.673Z,2.80
2019-01-11T09:50:59.828Z,2.70
2019-01-11T09:53:29.075Z,2.80
2019-01-11T09:55:58.309Z,2.90
2019-01-11T09:58:27.562Z,2.90
2019-01-11T10:00:59.207Z,2.90
2019-01-11T10:03:27.692Z,2.90
2019-01-11T10:05:56.847Z,2.90
2019-01-11T10:08:26.135Z,2.90
2019-01-11T10:10:55.414Z,2.90
2019-01-11T10:13:24.675Z,2.90
2019-01-11T10:15:53.897Z,2.90
2019-01-11T10:18:23.083Z,2.90
2019-01-11T10:20:52.267Z,3.00
2019-01-11T10:23:21.529Z,3.00
2019-01-11T10:25:50.791Z,3.00
2019-01-11T10:28:20.047Z,3.00
2019-01-11T10:30:49.273Z,3.10
2019-01-11T10:33:18.459Z,3.10
2019-01-11T10:35:49.191Z,3.20
2019-01-11T10:38:18.472Z,3.20
2019-01-11T10:40:47.786Z,3.20
2019-01-11T10:43:17.038Z,3.10
2019-01-11T10:45:46.266Z,3.10
2019-01-11T10:48:15.450Z,3.20
2019-01-11T10:50:44.678Z,3.20
2019-01-11T10:53:13.990Z,3.20
2019-01-11T10:55:43.218Z,3.10
2019-01-11T10:58:12.459Z,3.10
2019-01-11T11:00:41.705Z,3.20
2019-01-11T11:03:10.966Z,3.20
2019-01-11T11:05:40.270Z,3.20
2019-01-11T11:08:09.422Z,3.20
2019-01-11T11:10:38.707Z,3.20
2019-01-11T11:13:08.058Z,3.30
2019-01-11T11:15:38.887Z,3.30
2019-01-11T11:18:08.139Z,3.30
2019-01-11T11:20:37.395Z,3.20
2019-01-11T11:23:06.550Z,3.20
2019-01-11T11:25:35.843Z,3.20
2019-01-11T11:28:05.057Z,3.30
2019-01-11T11:30:34.332Z,3.20
2019-01-11T11:33:04.063Z,3.30
2019-01-11T11:35:33.434Z,3.30
2019-01-11T11:38:02.594Z,3.30
2019-01-11T11:40:33.019Z,3.30
2019-01-11T11:43:02.259Z,3.30
2019-01-11T11:45:31.910Z,3.30
2019-01-11T11:48:01.063Z,3.40
2019-01-11T11:50:30.333Z,3.30
2019-01-11T11:53:00.591Z,3.30
2019-01-11T11:55:29.861Z,3.40
2019-01-11T11:57:59.026Z,3.40
2019-01-11T12:00:28.844Z,3.40
2019-01-11T12:02:57.997Z,3.40
2019-01-11T12:05:27.268Z,3.40
2019-01-11T12:07:57.527Z,3.40
2019-01-11T12:10:26.816Z,3.40
2019-01-11T12:12:56.046Z,3.30
2019-01-11T12:15:25.223Z,3.20
2019-01-11T12:17:54.369Z,3.20
2019-01-11T12:20:33.582Z,3.20
2019-01-11T12:23:02.819Z,3.20
2019-01-11T12:25:32.089Z,3.20
2019-01-11T12:28:01.324Z,3.20
2019-01-11T12:30:30.618Z,3.20
2019-01-11T12:32:59.768Z,3.10
2019-01-11T12:35:29.025Z,3.10
2019-01-11T12:37:58.258Z,3.20
2019-01-11T12:40:27.715Z,3.10
2019-01-11T12:42:56.870Z,3.10
2019-01-11T12:45:26.051Z,3.20
2019-01-11T12:47:55.202Z,3.10
2019-01-11T12:50:27.935Z,3.10
2019-01-11T12:52:57.099Z,3.10
2019-01-11T12:55:26.372Z,3.10
2019-01-11T12:57:56.786Z,3.10
2019-01-11T13:00:26.002Z,3.10
2019-01-11T13:02:55.268Z,3.10
2019-01-11T13:05:24.600Z,3.10
2019-01-11T13:07:53.859Z,3.20
2019-01-11T13:10:23.193Z,3.20
2019-01-11T13:12:52.455Z,3.20
2019-01-11T13:15:23.460Z,3.20
2019-01-11T13:17:52.756Z,3.20
2019-01-11T13:20:23.182Z,3.20
2019-01-11T13:22:52.607Z,3.20
2019-01-11T13:25:21.866Z,3.20
2019-01-11T13:27:51.239Z,3.20
2019-01-11T13:30:20.791Z,3.20
2019-01-11T13:32:50.053Z,3.20
2019-01-11T13:35:19.377Z,3.20
2019-01-11T13:37:48.634Z,3.20
2019-01-11T13:40:23.417Z,3.20
2019-01-11T13:42:52.987Z,3.20
2019-01-11T13:45:22.618Z,3.20
2019-01-11T13:47:52.012Z,3.20
2019-01-11T13:50:52.582Z,3.20
2019-01-11T13:53:22.046Z,3.20
2019-01-11T13:55:51.215Z,3.10
2019-01-11T13:58:20.475Z,3.20
2019-01-11T14:00:49.814Z,3.20
2019-01-11T14:03:19.106Z,3.10
2019-01-11T14:05:48.370Z,3.20
2019-01-11T14:08:17.636Z,3.20
2019-01-11T14:10:46.867Z,3.20
2019-01-11T14:13:16.063Z,3.10
2019-01-11T14:15:45.250Z,3.10
2019-01-11T14:18:14.434Z,3.20
2019-01-11T14:20:43.662Z,3.10
2019-01-11T14:23:12.918Z,3.10
2019-01-11T14:25:42.195Z,3.10
2019-01-11T14:28:11.535Z,3.10
2019-01-11T14:30:41.111Z,3.10
2019-01-11T14:33:10.533Z,3.10
2019-01-11T14:35:39.767Z,3.10
2019-01-11T14:38:08.958Z,3.20
2019-01-11T14:40:38.192Z,3.20
2019-01-11T14:43:07.458Z,3.10
2019-01-11T14:45:36.691Z,3.10
2019-01-11T14:48:05.992Z,3.10
2019-01-11T14:50:35.330Z,3.10
2019-01-11T14:53:04.601Z,3.20
2019-01-11T14:55:33.853Z,3.20
2019-01-11T14:58:03.095Z,3.20
2019-01-11T15:00:32.454Z,3.20
2019-01-11T15:03:01.711Z,3.20
2019-01-11T15:05:30.968Z,3.20
2019-01-11T15:08:00.192Z,3.20
2019-01-11T15:10:29.466Z,3.20
2019-01-11T15:12:58.718Z,3.30
2019-01-11T15:15:27.982Z,3.30
2019-01-11T15:17:58.012Z,3.30
2019-01-11T15:20:27.192Z,3.30
2019-01-11T15:22:56.438Z,3.30
2019-01-11T15:25:25.646Z,3.30
2019-01-11T15:27:54.890Z,3.30
2019-01-11T15:30:24.193Z,3.40
2019-01-11T15:32:53.444Z,3.40
2019-01-11T15:35:22.623Z,3.40
2019-01-11T15:37:51.850Z,3.40
2019-01-11T15:40:23.730Z,3.40
2019-01-11T15:42:52.892Z,3.50
2019-01-11T15:45:22.164Z,3.40
2019-01-11T15:47:51.316Z,3.40
2019-01-11T15:51:03.754Z,3.50
2019-01-11T15:53:37.497Z,3.40
2019-01-11T15:56:09.406Z,3.40
2019-01-11T15:58:38.651Z,3.40
2019-01-11T16:01:07.971Z,3.40
2019-01-11T16:03:37.127Z,3.40
2019-01-11T16:06:33.112Z,3.40
2019-01-11T16:09:56.009Z,3.40
2019-01-11T16:12:31.188Z,3.50
2019-01-11T16:15:28.003Z,3.50
2019-01-11T16:17:59.663Z,3.50
2019-01-11T16:20:28.867Z,3.50
2019-01-11T16:22:58.124Z,3.50
2019-01-11T16:25:27.356Z,3.50
2019-01-11T16:27:56.946Z,3.60
2019-01-11T16:30:26.180Z,3.60
2019-01-11T16:32:55.450Z,3.60
2019-01-11T16:35:24.666Z,3.60
2019-01-11T16:37:53.851Z,3.60
2019-01-11T16:40:23.018Z,3.60
2019-01-11T16:42:52.274Z,3.60
2019-01-11T16:45:21.508Z,3.70
2019-01-11T16:47:50.762Z,3.70
2019-01-11T16:50:19.928Z,3.70
2019-01-11T16:52:49.187Z,3.70
2019-01-11T16:55:18.364Z,3.70
2019-01-11T16:57:47.659Z,3.70
2019-01-11T17:00:17.962Z,3.70
2019-01-11T17:02:47.282Z,3.80
2019-01-11T17:05:16.529Z,3.80
2019-01-11T17:07:45.720Z,3.80
2019-01-11T17:10:15.151Z,3.80
2019-01-11T17:12:44.474Z,3.80
2019-01-11T17:15:16.174Z,3.80
2019-01-11T17:17:45.446Z,3.80
2019-01-11T17:20:16.863Z,3.80
2019-01-11T17:22:46.114Z,3.80
2019-01-11T17:25:15.347Z,3.80
2019-01-11T17:27:44.832Z,3.80
2019-01-11T17:30:17.303Z,3.80
2019-01-11T17:32:46.581Z,3.80
2019-01-11T17:35:16.075Z,3.80
2019-01-11T17:37:45.298Z,3.80
2019-01-11T17:40:15.730Z,3.80
2019-01-11T17:42:44.962Z,3.80
2019-01-11T17:45:14.892Z,3.80
2019-01-11T17:47:44.044Z,3.80
2019-01-11T17:50:17.803Z,3.80
2019-01-11T17:52:47.043Z,3.80
2019-01-11T17:55:16.323Z,3.90
2019-01-11T17:57:45.658Z,3.90
2019-01-11T18:00:17.218Z,3.90
2019-01-11T18:02:46.455Z,3.90
2019-01-11T18:05:16.675Z,3.80
2019-01-11T18:07:45.833Z,3.80
2019-01-11T18:10:15.518Z,3.80
2019-01-11T18:12:44.669Z,3.80
2019-01-11T18:15:19.293Z,3.80
2019-01-11T18:17:48.747Z,3.80
2019-01-11T18:20:23.115Z,3.70
2019-01-11T18:22:52.352Z,3.80
2019-01-11T18:25:21.599Z,3.70
2019-01-11T18:27:50.859Z,3.80
2019-01-11T18:30:20.247Z,3.80
2019-01-11T18:32:49.540Z,3.80
2019-01-11T18:35:18.790Z,3.80
2019-01-11T18:37:48.030Z,3.80
2019-01-11T18:40:23.114Z,3.80
2019-01-11T18:42:52.394Z,3.80
2019-01-11T18:45:28.366Z,3.80
2019-01-11T18:47:52.622Z,3.80
2019-01-11T18:50:23.106Z,3.70
2019-01-11T18:52:52.250Z,3.70
2019-01-11T18:55:21.542Z,3.80
2019-01-11T18:57:50.697Z,3.80
2019-01-11T19:00:22.351Z,3.80
2019-01-11T19:02:51.607Z,3.80
2019-01-11T19:05:20.888Z,3.80
2019-01-11T19:07:50.353Z,3.70
2019-01-11T19:10:20.239Z,3.70
2019-01-11T19:12:49.527Z,3.70
2019-01-11T19:15:24.679Z,3.70
2019-01-11T19:17:54.428Z,3.70
2019-01-11T19:20:26.144Z,3.70
2019-01-11T19:22:55.318Z,3.80
2019-01-11T19:25:24.677Z,3.80
2019-01-11T19:27:54.162Z,3.80
2019-01-11T19:30:25.807Z,3.90
2019-01-11T19:32:55.331Z,3.80
2019-01-11T19:35:24.517Z,3.80
2019-01-11T19:37:53.713Z,3.80
2019-01-11T19:40:22.932Z,3.80
2019-01-11T19:42:52.243Z,3.80
2019-01-11T19:45:22.137Z,3.80
2019-01-11T19:47:51.451Z,3.80
2019-01-11T19:50:22.623Z,3.80
2019-01-11T19:52:52.297Z,3.80
2019-01-11T19:55:21.848Z,3.80
2019-01-11T19:57:51.633Z,3.80
2019-01-11T20:00:26.315Z,3.90
2019-01-11T20:02:55.733Z,3.90
2019-01-11T20:05:25.775Z,3.90
2019-01-11T20:07:55.620Z,3.90
2019-01-11T20:10:30.943Z,3.90
2019-01-11T20:13:00.419Z,3.90
2019-01-11T20:15:32.969Z,3.80
2019-01-11T20:18:02.679Z,3.80
2019-01-11T20:20:31.935Z,3.90
2019-01-11T20:23:02.524Z,3.90
2019-01-11T20:25:32.151Z,3.90
2019-01-11T20:28:01.363Z,3.90
2019-01-11T20:30:30.854Z,3.90
2019-01-11T20:33:00.415Z,3.90
2019-01-11T20:35:29.865Z,3.90
2019-01-11T20:37:59.401Z,3.90
2019-01-11T20:40:28.642Z,3.90
2019-01-11T20:42:57.939Z,3.90
2019-01-11T20:45:27.196Z,3.90
2019-01-11T20:47:56.441Z,3.90
2019-01-11T20:50:26.595Z,3.90
2019-01-11T20:52:56.755Z,3.90
2019-01-11T20:55:26.173Z,3.90
2019-01-11T20:57:55.970Z,3.90
2019-01-11T21:00:28.103Z,3.90
2019-01-11T21:02:57.363Z,3.90
2019-01-11T21:05:27.599Z,3.80
2019-01-11T21:07:56.868Z,3.80
2019-01-11T21:10:27.098Z,3.80
2019-01-11T21:12:56.363Z,3.80
2019-01-11T21:15:26.067Z,3.80
2019-01-11T21:17:55.308Z,3.90
2019-01-11T21:20:24.558Z,3.90
2019-01-11T21:22:53.726Z,3.90
2019-01-11T21:25:22.911Z,4.00
2019-01-11T21:27:52.239Z,4.00
2019-01-11T21:30:27.202Z,4.00
2019-01-11T21:32:56.440Z,4.00
2019-01-11T21:35:26.328Z,4.00
2019-01-11T21:37:55.567Z,4.00
2019-01-11T21:40:25.309Z,4.00
2019-01-11T21:42:54.617Z,4.00
2019-01-11T21:45:23.906Z,4.00
2019-01-11T21:47:55.927Z,4.00
2019-01-11T21:50:26.942Z,4.00
2019-01-11T21:52:56.173Z,4.00
2019-01-11T21:55:25.431Z,4.00
2019-01-11T21:57:54.953Z,4.00
2019-01-11T22:00:41.898Z,4.00
2019-01-11T22:03:16.846Z,4.00
2019-01-11T22:05:46.806Z,4.00
2019-01-11T22:08:16.199Z,4.00
2019-01-11T22:10:45.467Z,4.00
2019-01-11T22:13:14.774Z,4.00
2019-01-11T22:15:44.100Z,4.10
2019-01-11T22:18:13.326Z,4.00
2019-01-11T22:20:42.610Z,4.00
2019-01-11T22:23:11.848Z,4.00
2019-01-11T22:25:41.054Z,4.00
2019-01-11T22:28:10.218Z,4.00
2019-01-11T22:30:39.514Z,4.00
2019-01-11T22:33:08.742Z,4.10
2019-01-11T22:35:37.999Z,4.10
2019-01-11T22:38:07.237Z,4.10
2019-01-11T22:40:36.486Z,4.10
2019-01-11T22:43:06.139Z,4.10
2019-01-11T22:45:35.412Z,4.10
2019-01-11T22:48:04.635Z,4.20
2019-01-11T22:50:34.172Z,4.20
2019-01-11T22:53:03.412Z,4.20
2019-01-11T22:55:32.681Z,4.30
2019-01-11T22:58:01.906Z,4.30
2019-01-11T23:00:40.810Z,4.30
2019-01-11T23:03:17.194Z,4.30
2019-01-11T23:05:46.945Z,4.40
2019-01-11T23:08:19.286Z,4.30
2019-01-11T23:11:38.473Z,4.30
2019-01-11T23:14:07.851Z,4.30
2019-01-11T23:16:45.079Z,4.40
2019-01-11T23:19:14.226Z,4.40
2019-01-11T23:21:43.517Z,4.40
2019-01-11T23:24:17.290Z,4.40
2019-01-11T23:26:46.140Z,4.40
2019-01-11T23:29:15.367Z,4.40
2019-01-11T23:31:44.546Z,4.40
2019-01-11T23:34:13.764Z,4.40
2019-01-11T23:36:43.031Z,4.40
2019-01-11T23:39:12.187Z,4.40
2019-01-11T23:41:41.406Z,4.50
2019-01-11T23:44:10.588Z,4.50
2019-01-11T23:46:39.768Z,4.50
2019-01-11T23:49:09.027Z,4.50
2019-01-11T23:51:38.182Z,4.50
2019-01-11T23:54:07.370Z,4.50
2019-01-11T23:56:36.523Z,4.40
2019-01-11T23:59:06.672Z,4.40
